Terminal Aerodrome Forecast
Issued by NWS

Home | Current Version | Previous Version | Text Only | Print | Product List | Glossary On
Versions: 1 2 3 4 5 6 7 8 9 10 11 12 13 14 15 16 17 18 19 20 21 22 23 24 25 26 27
000
FTUS43 KGRR 270800 AAB
TAFMKG
TAF AMD
KMKG 270849Z 2709/2806 19009KT P6SM OVC035
     FM271100 19011KT P6SM -RA OVC025
     FM271300 19014KT 4SM -RA BR OVC009
     FM271500 19014G28KT 1SM -DZ BR OVC007
     FM272000 24014G22KT P6SM OVC015
     FM280200 30009KT P6SM OVC025=

USA.gov is the U.S. government's official web portal to all federal, state and local government web resources and services.